Time;durP1;ratioP1;P1;durP2;ratioP2;P2;SDS_P1;SDS_P2;PMS_P1;PMS_P2;Temp;Humidity;BMP_temperature;BMP_pressure;BME280_temperature;BME280_humidity;BME280_pressure;Samples;Min_cycle;Max_cycle;Signal;HPM_P1;HPM_P2
2021/12/28 00:00:23;;;;;;;10.97;8.30;;;;;;;;;;5039274;28;20231;-82
2021/12/28 00:02:50;;;;;;;16.33;8.73;;;;;;;;;;5039626;28;20206;-82
2021/12/28 00:05:18;;;;;;;14.47;9.83;;;;;;;;;;5038794;28;20235;-82
2021/12/28 00:07:45;;;;;;;12.63;8.70;;;;;;;;;;5038349;28;20207;-82
2021/12/28 00:10:13;;;;;;;12.80;9.13;;;;;;;;;;5039636;28;20643;-82
2021/12/28 00:12:41;;;;;;;14.23;8.97;;;;;;;;;;5041168;28;20214;-82
2021/12/28 00:15:20;;;;;;;12.87;8.67;;;;;;;;;;5038833;28;20246;-82
2021/12/28 00:18:02;;;;;;;11.97;9.47;;;;;;;;;;5040323;28;20229;-82
2021/12/28 00:20:29;;;;;;;11.73;7.47;;;;;;;;;;5040720;28;20603;-82
2021/12/28 00:22:56;;;;;;;8.90;7.00;;;;;;;;;;5040779;28;20215;-82
2021/12/28 00:25:24;;;;;;;9.57;8.13;;;;;;;;;;5040503;28;20211;-82
2021/12/28 00:27:52;;;;;;;13.93;7.30;;;;;;;;;;5040824;28;20207;-82
2021/12/28 00:30:19;;;;;;;9.73;7.60;;;;;;;;;;5038629;28;20249;-82
2021/12/28 00:32:52;;;;;;;9.20;7.23;;;;;;;;;;5038231;28;20222;-82
2021/12/28 00:35:20;;;;;;;12.73;7.90;;;;;;;;;;5038054;28;20298;-82
2021/12/28 00:37:48;;;;;;;12.67;8.13;;;;;;;;;;5038801;28;20256;-82
2021/12/28 00:40:15;;;;;;;14.73;7.13;;;;;;;;;;5038561;28;20241;-82
2021/12/28 00:42:42;;;;;;;10.17;7.20;;;;;;;;;;5039243;28;20215;-82
2021/12/28 00:45:09;;;;;;;13.43;8.03;;;;;;;;;;5038327;28;20258;-82
2021/12/28 00:47:36;;;;;;;10.33;7.37;;;;;;;;;;5038319;28;20617;-82
2021/12/28 00:50:05;;;;;;;8.07;5.87;;;;;;;;;;5037456;28;20293;-82
2021/12/28 00:52:34;;;;;;;9.70;6.33;;;;;;;;;;5038511;28;20257;-82
2021/12/28 00:55:01;;;;;;;7.90;5.50;;;;;;;;;;5038063;28;20241;-82
2021/12/28 00:57:28;;;;;;;13.33;6.43;;;;;;;;;;5039341;28;20215;-82
2021/12/28 00:59:55;;;;;;;11.77;6.30;;;;;;;;;;5037386;28;20261;-83
2021/12/28 01:02:22;;;;;;;9.93;6.07;;;;;;;;;;5038298;28;20551;-82
2021/12/28 01:04:49;;;;;;;12.80;5.80;;;;;;;;;;5039661;28;20300;-81
2021/12/28 01:07:17;;;;;;;6.07;5.13;;;;;;;;;;5039747;28;20313;-81
2021/12/28 01:09:45;;;;;;;10.80;5.83;;;;;;;;;;5039570;28;20231;-81
2021/12/28 01:12:12;;;;;;;9.80;5.60;;;;;;;;;;5039645;28;20698;-81
2021/12/28 01:14:39;;;;;;;13.03;5.17;;;;;;;;;;5039023;28;20234;-81
2021/12/28 01:17:07;;;;;;;14.93;6.27;;;;;;;;;;5039465;28;20203;-81
2021/12/28 01:19:34;;;;;;;10.67;6.00;;;;;;;;;;5038527;28;20233;-81
2021/12/28 01:22:01;;;;;;;10.80;5.83;;;;;;;;;;5039374;28;20199;-81
2021/12/28 01:24:28;;;;;;;16.83;6.40;;;;;;;;;;5038953;28;20234;-81
2021/12/28 01:26:57;;;;;;;15.33;6.50;;;;;;;;;;5039877;28;20313;-81
2021/12/28 01:29:24;;;;;;;13.80;5.90;;;;;;;;;;5038878;28;20710;-81
2021/12/28 01:31:51;;;;;;;15.63;7.30;;;;;;;;;;5038990;28;20230;-81
2021/12/28 01:34:19;;;;;;;10.90;6.07;;;;;;;;;;5039071;28;20241;-81
2021/12/28 01:36:46;;;;;;;14.37;5.83;;;;;;;;;;5039670;28;20210;-81
2021/12/28 01:39:13;;;;;;;10.93;5.43;;;;;;;;;;5038323;28;20230;-81
2021/12/28 01:41:40;;;;;;;12.17;6.57;;;;;;;;;;5038561;28;20203;-81
2021/12/28 01:44:10;;;;;;;14.53;5.70;;;;;;;;;;5038946;28;20234;-81
2021/12/28 01:46:37;;;;;;;17.30;6.60;;;;;;;;;;5039156;28;20207;-81
2021/12/28 01:49:05;;;;;;;9.83;6.50;;;;;;;;;;5038858;28;20245;-81
2021/12/28 01:51:32;;;;;;;14.87;4.63;;;;;;;;;;5039372;28;20237;-81
2021/12/28 01:54:00;;;;;;;15.43;5.23;;;;;;;;;;5039436;28;20251;-81
2021/12/28 01:56:30;;;;;;;10.30;4.97;;;;;;;;;;5039600;28;20217;-81
2021/12/28 01:58:58;;;;;;;15.57;5.03;;;;;;;;;;5038926;28;20260;-81
2021/12/28 02:01:27;;;;;;;14.60;5.13;;;;;;;;;;5039374;28;20235;-81
2021/12/28 02:03:54;;;;;;;14.20;4.27;;;;;;;;;;5039107;28;20613;-81
2021/12/28 02:06:25;;;;;;;25.93;4.83;;;;;;;;;;5037086;28;20216;-81
2021/12/28 02:08:52;;;;;;;12.23;4.43;;;;;;;;;;5038650;28;20234;-81
2021/12/28 02:11:19;;;;;;;16.77;4.67;;;;;;;;;;5038741;28;20245;-81
2021/12/28 02:13:46;;;;;;;14.70;4.80;;;;;;;;;;5038182;28;20230;-81
2021/12/28 02:16:13;;;;;;;24.33;4.93;;;;;;;;;;5039038;28;20210;-81
2021/12/28 02:18:42;;;;;;;21.13;5.10;;;;;;;;;;5038127;28;20241;-81
2021/12/28 02:21:11;;;;;;;19.60;4.70;;;;;;;;;;5038340;28;20234;-81
2021/12/28 02:23:38;;;;;;;22.47;4.93;;;;;;;;;;5037690;28;20226;-81
2021/12/28 02:26:05;;;;;;;21.10;5.00;;;;;;;;;;5038035;28;20217;-81
2021/12/28 02:28:32;;;;;;;20.60;4.40;;;;;;;;;;5037536;28;20230;-81
2021/12/28 02:31:02;;;;;;;14.17;4.10;;;;;;;;;;5038038;28;20261;-81
2021/12/28 02:33:29;;;;;;;13.87;4.00;;;;;;;;;;5038206;28;20260;-81
2021/12/28 02:36:00;;;;;;;16.93;4.67;;;;;;;;;;5038898;28;20207;-81
2021/12/28 02:38:29;;;;;;;18.07;4.17;;;;;;;;;;5042904;28;20237;-81
2021/12/28 02:40:56;;;;;;;20.47;4.40;;;;;;;;;;5038782;28;20299;-81
2021/12/28 02:43:23;;;;;;;27.27;4.60;;;;;;;;;;5038083;28;20238;-81
2021/12/28 02:45:52;;;;;;;23.83;5.60;;;;;;;;;;5038122;28;20599;-81
2021/12/28 02:48:19;;;;;;;21.40;4.97;;;;;;;;;;5038118;28;20256;-81
2021/12/28 02:50:48;;;;;;;19.17;5.53;;;;;;;;;;5037030;28;20226;-81
2021/12/28 02:53:15;;;;;;;13.63;4.60;;;;;;;;;;5037251;28;20249;-81
2021/12/28 02:55:44;;;;;;;15.17;5.30;;;;;;;;;;5037493;28;20207;-81
2021/12/28 02:58:12;;;;;;;24.23;5.30;;;;;;;;;;5036946;28;20215;-81
2021/12/28 03:00:40;;;;;;;16.27;5.47;;;;;;;;;;5038797;28;20235;-81
2021/12/28 03:03:08;;;;;;;21.30;5.17;;;;;;;;;;5040185;28;20690;-81
2021/12/28 03:05:37;;;;;;;19.40;4.63;;;;;;;;;;5040747;28;20207;-81
2021/12/28 03:08:05;;;;;;;17.43;4.93;;;;;;;;;;5040703;28;20218;-81
2021/12/28 03:10:32;;;;;;;12.90;4.60;;;;;;;;;;5041610;28;20280;-81
2021/12/28 03:13:00;;;;;;;15.20;4.20;;;;;;;;;;5040725;28;20226;-81
2021/12/28 03:15:27;;;;;;;13.63;4.93;;;;;;;;;;5041306;28;20206;-81
2021/12/28 03:17:55;;;;;;;16.50;4.20;;;;;;;;;;5041711;28;20222;-81
2021/12/28 03:20:22;;;;;;;14.20;3.90;;;;;;;;;;5041144;28;20223;-81
2021/12/28 03:22:49;;;;;;;16.53;4.00;;;;;;;;;;5039245;28;20934;-81
2021/12/28 03:25:16;;;;;;;20.77;4.40;;;;;;;;;;5040127;28;20709;-81
2021/12/28 03:27:44;;;;;;;13.60;4.63;;;;;;;;;;5040580;28;20218;-81
2021/12/28 03:30:14;;;;;;;14.00;4.30;;;;;;;;;;5039438;28;20241;-81
2021/12/28 03:32:41;;;;;;;11.13;3.27;;;;;;;;;;5040530;28;20633;-81
2021/12/28 03:35:09;;;;;;;18.83;4.03;;;;;;;;;;5040078;28;20649;-81
2021/12/28 03:37:36;;;;;;;16.43;3.70;;;;;;;;;;5041048;28;20579;-81
2021/12/28 03:40:04;;;;;;;17.33;5.13;;;;;;;;;;5040502;28;20235;-81
2021/12/28 03:42:31;;;;;;;23.23;4.90;;;;;;;;;;5041193;28;20211;-81
2021/12/28 03:44:59;;;;;;;16.50;3.83;;;;;;;;;;5040321;28;20254;-81
2021/12/28 03:47:27;;;;;;;17.17;4.13;;;;;;;;;;5039321;28;20217;-81
2021/12/28 03:49:54;;;;;;;13.33;4.20;;;;;;;;;;5039396;28;20253;-81
2021/12/28 03:52:21;;;;;;;10.80;3.70;;;;;;;;;;5039741;28;20226;-81
2021/12/28 03:54:48;;;;;;;12.10;3.57;;;;;;;;;;5039777;28;20644;-81
2021/12/28 03:57:15;;;;;;;18.33;3.50;;;;;;;;;;5036955;28;20218;-81
2021/12/28 03:59:42;;;;;;;16.03;3.50;;;;;;;;;;5035263;28;20245;-82
2021/12/28 04:02:09;;;;;;;14.77;4.03;;;;;;;;;;5040648;28;20203;-81
2021/12/28 04:04:38;;;;;;;8.87;3.40;;;;;;;;;;5041421;28;20261;-80
2021/12/28 04:07:08;;;;;;;14.07;4.10;;;;;;;;;;5042497;28;20225;-80
2021/12/28 04:09:58;;;;;;;9.97;3.40;;;;;;;;;;5034980;28;20269;-81
2021/12/28 04:12:25;;;;;;;11.50;3.97;;;;;;;;;;5038508;28;20288;-82
2021/12/28 04:14:52;;;;;;;10.43;3.27;;;;;;;;;;5044749;28;20250;-81
2021/12/28 04:17:19;;;;;;;13.77;4.00;;;;;;;;;;5045694;28;20272;-81
2021/12/28 04:19:48;;;;;;;23.23;3.90;;;;;;;;;;5046331;28;20289;-81
2021/12/28 04:22:15;;;;;;;9.13;3.50;;;;;;;;;;5044807;28;20206;-81
2021/12/28 04:24:42;;;;;;;11.53;3.70;;;;;;;;;;5043571;28;20638;-81
2021/12/28 04:27:09;;;;;;;6.27;3.20;;;;;;;;;;5040409;28;20213;-81
2021/12/28 04:29:37;;;;;;;14.23;3.93;;;;;;;;;;5038605;28;20782;-81
2021/12/28 04:32:04;;;;;;;7.53;3.30;;;;;;;;;;5038780;28;20249;-81
2021/12/28 04:34:31;;;;;;;10.30;3.43;;;;;;;;;;5037568;28;20300;-81
2021/12/28 04:36:59;;;;;;;11.43;3.70;;;;;;;;;;5037930;28;20211;-81
2021/12/28 04:39:26;;;;;;;11.63;3.53;;;;;;;;;;5037321;28;20239;-81
2021/12/28 04:41:53;;;;;;;9.17;3.23;;;;;;;;;;5037832;28;20225;-81
2021/12/28 04:44:24;;;;;;;7.70;3.40;;;;;;;;;;5036956;28;20234;-81
2021/12/28 04:46:51;;;;;;;11.83;3.30;;;;;;;;;;5038115;28;20190;-81
2021/12/28 04:49:21;;;;;;;6.30;2.90;;;;;;;;;;5037486;28;20703;-81
2021/12/28 04:51:48;;;;;;;8.83;3.30;;;;;;;;;;5038226;28;20229;-81
2021/12/28 04:54:16;;;;;;;4.23;2.63;;;;;;;;;;5037714;28;20253;-81
2021/12/28 04:56:43;;;;;;;7.13;2.40;;;;;;;;;;5037980;28;20252;-81
2021/12/28 04:59:10;;;;;;;5.50;2.40;;;;;;;;;;5038402;28;20235;-81
2021/12/28 05:01:37;;;;;;;6.80;2.90;;;;;;;;;;5039066;28;20222;-81
2021/12/28 05:04:05;;;;;;;9.00;2.30;;;;;;;;;;5039291;28;20231;-81
2021/12/28 05:06:32;;;;;;;11.20;2.83;;;;;;;;;;5039755;28;20219;-81
2021/12/28 05:08:59;;;;;;;10.70;3.20;;;;;;;;;;5039083;28;20241;-81
2021/12/28 05:11:28;;;;;;;8.07;2.67;;;;;;;;;;5039150;28;20238;-81
2021/12/28 05:13:56;;;;;;;10.93;3.00;;;;;;;;;;5038305;28;20246;-81
2021/12/28 05:16:27;;;;;;;8.07;2.77;;;;;;;;;;5037261;28;20210;-82
2021/12/28 05:18:54;;;;;;;8.97;2.70;;;;;;;;;;5037147;28;20230;-81
2021/12/28 05:21:21;;;;;;;7.53;2.57;;;;;;;;;;5036877;28;20242;-81
2021/12/28 05:23:48;;;;;;;6.37;2.47;;;;;;;;;;5034961;28;20233;-81
2021/12/28 05:26:16;;;;;;;9.27;2.70;;;;;;;;;;5037051;28;20638;-81
2021/12/28 05:28:44;;;;;;;6.07;2.77;;;;;;;;;;5035954;28;20702;-82
2021/12/28 05:31:12;;;;;;;7.03;2.67;;;;;;;;;;5036730;28;20231;-82
2021/12/28 05:33:39;;;;;;;7.93;2.70;;;;;;;;;;5036183;28;20245;-82
2021/12/28 05:36:06;;;;;;;5.23;2.27;;;;;;;;;;5036884;28;20214;-82
2021/12/28 05:38:33;;;;;;;8.63;2.90;;;;;;;;;;5035169;28;20234;-82
2021/12/28 05:41:00;;;;;;;5.70;2.90;;;;;;;;;;5037229;28;20223;-82
2021/12/28 05:43:27;;;;;;;4.93;2.93;;;;;;;;;;5036817;28;20234;-82
2021/12/28 05:45:56;;;;;;;2.87;1.97;;;;;;;;;;5038185;28;20289;-82
2021/12/28 05:48:23;;;;;;;5.03;2.57;;;;;;;;;;5038302;28;20237;-82
2021/12/28 05:50:51;;;;;;;5.33;2.83;;;;;;;;;;5038791;28;20233;-83
2021/12/28 05:53:18;;;;;;;7.70;2.80;;;;;;;;;;5038488;28;20321;-82
2021/12/28 05:55:45;;;;;;;8.73;3.07;;;;;;;;;;5038618;28;20214;-82
2021/12/28 05:58:12;;;;;;;10.67;3.43;;;;;;;;;;5038338;28;20547;-83
2021/12/28 06:00:39;;;;;;;7.97;2.90;;;;;;;;;;5038441;28;20245;-82
2021/12/28 06:03:07;;;;;;;9.03;2.60;;;;;;;;;;5042937;28;20198;-82
2021/12/28 06:05:35;;;;;;;11.73;3.30;;;;;;;;;;5038477;28;20622;-82
2021/12/28 06:08:02;;;;;;;9.53;2.80;;;;;;;;;;5037722;28;20222;-82
2021/12/28 06:10:29;;;;;;;8.27;2.60;;;;;;;;;;5038887;28;20230;-81
2021/12/28 06:12:56;;;;;;;9.57;3.00;;;;;;;;;;5039264;28;20231;-81
2021/12/28 06:15:23;;;;;;;7.13;2.93;;;;;;;;;;5039407;28;20737;-81
2021/12/28 06:17:50;;;;;;;5.93;2.63;;;;;;;;;;5040197;28;20215;-81
2021/12/28 06:20:18;;;;;;;8.70;2.77;;;;;;;;;;5039630;28;20249;-81
2021/12/28 06:22:45;;;;;;;7.17;2.93;;;;;;;;;;5039749;28;20210;-82
2021/12/28 06:25:12;;;;;;;5.77;3.10;;;;;;;;;;5039880;28;20291;-81
2021/12/28 06:27:39;;;;;;;10.20;3.00;;;;;;;;;;5040189;28;20213;-81
2021/12/28 06:30:07;;;;;;;8.50;4.00;;;;;;;;;;5038898;28;20238;-81
2021/12/28 06:32:34;;;;;;;7.33;3.03;;;;;;;;;;5039567;28;20240;-82
2021/12/28 06:35:01;;;;;;;9.57;3.03;;;;;;;;;;5041682;28;20735;-82
2021/12/28 06:37:30;;;;;;;10.33;3.00;;;;;;;;;;5044840;28;20202;-81
2021/12/28 06:39:57;;;;;;;7.93;2.60;;;;;;;;;;5042627;28;20242;-82
2021/12/28 06:42:24;;;;;;;10.67;2.47;;;;;;;;;;5043424;28;20206;-82
2021/12/28 06:44:52;;;;;;;6.60;2.47;;;;;;;;;;5043478;28;20235;-82
2021/12/28 06:47:19;;;;;;;6.80;3.00;;;;;;;;;;5043700;28;20214;-82
2021/12/28 06:49:47;;;;;;;4.77;2.77;;;;;;;;;;5043571;28;20242;-81
2021/12/28 06:52:14;;;;;;;4.50;2.40;;;;;;;;;;5043358;28;20599;-81
2021/12/28 06:54:44;;;;;;;8.93;2.43;;;;;;;;;;5042318;28;20327;-82
2021/12/28 06:57:12;;;;;;;4.87;2.80;;;;;;;;;;5042699;28;20202;-82
2021/12/28 06:59:43;;;;;;;8.57;2.43;;;;;;;;;;5042749;28;20250;-82
2021/12/28 07:02:10;;;;;;;7.50;3.03;;;;;;;;;;5043921;28;20206;-82
2021/12/28 07:04:37;;;;;;;5.63;2.20;;;;;;;;;;5042536;28;20230;-82
2021/12/28 07:07:05;;;;;;;3.80;2.30;;;;;;;;;;5043746;28;20218;-83
2021/12/28 07:09:32;;;;;;;4.30;2.20;;;;;;;;;;5043449;28;20238;-82
2021/12/28 07:12:00;;;;;;;4.00;2.30;;;;;;;;;;5039809;28;20238;-82
2021/12/28 07:14:28;;;;;;;4.27;2.30;;;;;;;;;;5041941;28;20372;-83
2021/12/28 07:16:56;;;;;;;8.10;2.77;;;;;;;;;;5059576;28;20245;-82
2021/12/28 07:19:23;;;;;;;5.67;2.37;;;;;;;;;;5061870;28;20265;-82
2021/12/28 07:21:50;;;;;;;4.97;2.77;;;;;;;;;;5062653;28;20206;-82
2021/12/28 07:24:17;;;;;;;7.27;2.47;;;;;;;;;;5062836;28;20230;-82
2021/12/28 07:26:44;;;;;;;4.60;2.83;;;;;;;;;;5061960;28;20343;-82
2021/12/28 07:29:13;;;;;;;7.93;4.07;;;;;;;;;;5058828;28;20242;-81
2021/12/28 07:31:41;;;;;;;9.97;3.17;;;;;;;;;;5036640;28;20231;-82
2021/12/28 07:34:08;;;;;;;9.20;2.97;;;;;;;;;;5045492;28;20255;-83
2021/12/28 07:36:35;;;;;;;7.00;2.20;;;;;;;;;;5037239;28;20256;-83
2021/12/28 07:39:02;;;;;;;5.17;2.40;;;;;;;;;;5035733;28;20239;-83
2021/12/28 07:41:32;;;;;;;7.00;2.77;;;;;;;;;;5036812;28;20235;-83
2021/12/28 07:43:59;;;;;;;3.20;2.20;;;;;;;;;;5036588;28;20238;-83
2021/12/28 07:46:28;;;;;;;4.90;3.53;;;;;;;;;;5037310;28;20202;-83
2021/12/28 07:48:55;;;;;;;5.20;2.30;;;;;;;;;;5036582;28;20745;-83
2021/12/28 07:51:22;;;;;;;4.27;2.30;;;;;;;;;;5036190;28;20233;-83
2021/12/28 07:53:49;;;;;;;6.87;2.90;;;;;;;;;;5036910;28;20611;-83
2021/12/28 07:56:16;;;;;;;4.70;2.83;;;;;;;;;;5036813;28;20217;-83
2021/12/28 07:58:43;;;;;;;3.60;2.60;;;;;;;;;;5036443;28;20292;-83
2021/12/28 08:01:10;;;;;;;4.57;2.50;;;;;;;;;;5039678;28;20227;-83
2021/12/28 08:03:39;;;;;;;4.50;2.27;;;;;;;;;;5038574;28;20243;-82
2021/12/28 08:06:06;;;;;;;4.47;1.97;;;;;;;;;;5040098;28;20206;-82
2021/12/28 08:08:33;;;;;;;5.20;2.40;;;;;;;;;;5040665;28;20230;-82
2021/12/28 08:11:00;;;;;;;4.13;2.20;;;;;;;;;;5040904;28;20231;-82
2021/12/28 08:13:27;;;;;;;13.73;6.23;;;;;;;;;;5041605;28;20231;-82
2021/12/28 08:15:55;;;;;;;3.60;2.47;;;;;;;;;;5042070;28;20206;-82
2021/12/28 08:18:22;;;;;;;3.83;2.20;;;;;;;;;;5041992;28;20695;-81
2021/12/28 08:20:50;;;;;;;4.83;2.00;;;;;;;;;;5041121;28;20226;-82
2021/12/28 08:23:17;;;;;;;3.93;2.03;;;;;;;;;;5040226;28;20226;-81
2021/12/28 08:25:45;;;;;;;2.03;1.93;;;;;;;;;;5042740;28;20211;-81
2021/12/28 08:28:12;;;;;;;7.77;2.40;;;;;;;;;;5043538;28;20207;-81
2021/12/28 08:30:39;;;;;;;6.40;3.27;;;;;;;;;;5041822;28;20238;-82
2021/12/28 08:33:07;;;;;;;2.50;2.30;;;;;;;;;;5040327;28;20210;-81
2021/12/28 08:35:34;;;;;;;1.83;1.73;;;;;;;;;;5040485;28;20808;-81
2021/12/28 08:38:03;;;;;;;1.60;1.50;;;;;;;;;;5041267;28;20671;-81
2021/12/28 08:40:30;;;;;;;2.80;2.30;;;;;;;;;;5040381;28;20896;-81
2021/12/28 08:42:57;;;;;;;1.70;1.33;;;;;;;;;;5040925;28;20211;-81
2021/12/28 08:45:24;;;;;;;12.20;1.60;;;;;;;;;;5040857;28;20207;-82
2021/12/28 08:47:51;;;;;;;1.30;1.20;;;;;;;;;;5041537;28;20195;-81
2021/12/28 08:50:19;;;;;;;1.97;1.20;;;;;;;;;;5040877;28;20229;-82
2021/12/28 08:52:47;;;;;;;1.33;1.33;;;;;;;;;;5040832;28;20199;-82
2021/12/28 08:55:16;;;;;;;4.53;3.43;;;;;;;;;;5040435;28;20239;-81
2021/12/28 08:57:43;;;;;;;16.50;9.63;;;;;;;;;;5040658;28;20202;-82
2021/12/28 09:00:12;;;;;;;8.83;5.47;;;;;;;;;;5040489;28;20230;-82
2021/12/28 09:02:39;;;;;;;2.40;2.20;;;;;;;;;;5041304;28;20213;-82
2021/12/28 09:05:07;;;;;;;3.30;3.00;;;;;;;;;;5040859;28;20237;-82
2021/12/28 09:07:34;;;;;;;1.60;1.50;;;;;;;;;;5040710;28;20210;-82
2021/12/28 09:10:01;;;;;;;2.97;2.00;;;;;;;;;;5040966;28;20238;-82
2021/12/28 09:12:29;;;;;;;1.80;1.70;;;;;;;;;;5041162;28;20214;-82
2021/12/28 09:14:56;;;;;;;1.67;1.43;;;;;;;;;;5040588;28;20234;-82
2021/12/28 09:17:23;;;;;;;1.90;1.80;;;;;;;;;;5041914;28;20215;-82
2021/12/28 09:19:50;;;;;;;1.80;1.70;;;;;;;;;;5040416;28;20234;-82
2021/12/28 09:22:17;;;;;;;1.73;1.60;;;;;;;;;;5040732;28;20270;-82
2021/12/28 09:24:45;;;;;;;1.80;1.70;;;;;;;;;;5039399;28;20245;-82
2021/12/28 09:27:12;;;;;;;1.50;1.50;;;;;;;;;;5042049;28;20202;-82
2021/12/28 09:29:42;;;;;;;1.90;1.80;;;;;;;;;;5040687;28;20245;-82
2021/12/28 09:32:10;;;;;;;2.43;2.33;;;;;;;;;;5040714;28;20218;-82
2021/12/28 09:34:37;;;;;;;2.47;2.27;;;;;;;;;;5039762;28;20250;-82
2021/12/28 09:37:04;;;;;;;1.90;1.80;;;;;;;;;;5040424;28;20214;-82
2021/12/28 09:39:31;;;;;;;5.67;2.40;;;;;;;;;;5040096;28;20644;-82
2021/12/28 09:41:59;;;;;;;3.43;2.40;;;;;;;;;;5040256;28;20218;-81
2021/12/28 09:44:27;;;;;;;2.70;2.50;;;;;;;;;;5038952;28;20276;-82
2021/12/28 09:46:55;;;;;;;3.00;2.03;;;;;;;;;;5039457;28;20563;-82
2021/12/28 09:49:22;;;;;;;2.00;1.80;;;;;;;;;;5033604;28;20261;-81
2021/12/28 09:51:49;;;;;;;3.17;2.50;;;;;;;;;;5040073;28;20218;-81
2021/12/28 09:54:17;;;;;;;1.80;1.70;;;;;;;;;;5038961;28;20245;-82
2021/12/28 09:56:44;;;;;;;1.80;1.70;;;;;;;;;;5040253;28;20218;-82
2021/12/28 09:59:11;;;;;;;2.00;1.90;;;;;;;;;;5040075;28;20230;-81
2021/12/28 10:01:38;;;;;;;1.83;1.73;;;;;;;;;;5039913;28;20230;-82
2021/12/28 10:04:07;;;;;;;1.40;1.40;;;;;;;;;;5039976;28;20223;-82
2021/12/28 10:06:34;;;;;;;1.40;1.40;;;;;;;;;;5039362;28;20214;-82
2021/12/28 10:09:08;;;;;;;2.00;1.90;;;;;;;;;;5038579;28;20245;-81
2021/12/28 10:11:36;;;;;;;1.90;1.80;;;;;;;;;;5039481;28;20236;-82
2021/12/28 10:14:14;;;;;;;1.40;1.40;;;;;;;;;;5040145;28;20285;-82
2021/12/28 10:16:45;;;;;;;1.57;1.53;;;;;;;;;;5039697;28;20638;-81
2021/12/28 10:19:31;;;;;;;3.47;1.90;;;;;;;;;;5040091;28;20234;-82
2021/12/28 10:21:59;;;;;;;2.10;1.90;;;;;;;;;;5040910;28;20225;-82
2021/12/28 10:24:34;;;;;;;1.40;1.30;;;;;;;;;;5039499;28;20231;-81
2021/12/28 10:27:10;;;;;;;2.33;2.23;;;;;;;;;;5039996;28;20477;-81
2021/12/28 10:29:37;;;;;;;2.20;2.00;;;;;;;;;;5039314;28;20246;-82
2021/12/28 10:32:18;;;;;;;3.83;2.43;;;;;;;;;;5039038;28;20222;-81
2021/12/28 10:34:46;;;;;;;2.60;2.40;;;;;;;;;;5040155;28;20284;-81
2021/12/28 10:37:19;;;;;;;2.80;2.60;;;;;;;;;;5039684;28;20207;-82
2021/12/28 10:39:47;;;;;;;2.97;2.77;;;;;;;;;;5039175;28;20234;-82
2021/12/28 10:42:29;;;;;;;3.13;2.83;;;;;;;;;;5040170;28;20214;-82
2021/12/28 10:44:59;;;;;;;2.20;2.10;;;;;;;;;;5038860;28;20235;-82
2021/12/28 10:47:26;;;;;;;3.47;3.20;;;;;;;;;;5038329;28;20574;-81
2021/12/28 10:49:53;;;;;;;2.40;2.27;;;;;;;;;;5038805;28;20246;-81
2021/12/28 10:52:27;;;;;;;2.87;2.67;;;;;;;;;;5038614;28;20219;-81
2021/12/28 10:55:18;;;;;;;2.63;2.50;;;;;;;;;;5038847;28;20230;-81
2021/12/28 10:57:45;;;;;;;2.77;2.57;;;;;;;;;;5039950;28;20764;-82
2021/12/28 11:00:25;;;;;;;2.80;2.60;;;;;;;;;;5038948;28;20234;-82
2021/12/28 11:02:52;;;;;;;3.40;3.07;;;;;;;;;;5038849;28;20214;-82
2021/12/28 11:05:30;;;;;;;2.90;2.70;;;;;;;;;;5039274;28;20241;-81
2021/12/28 11:07:59;;;;;;;2.90;2.70;;;;;;;;;;5038406;28;20206;-81
2021/12/28 11:10:28;;;;;;;3.10;2.90;;;;;;;;;;5038242;28;20230;-81
2021/12/28 11:12:55;;;;;;;2.70;2.57;;;;;;;;;;5038180;28;20238;-81
2021/12/28 11:15:22;;;;;;;3.00;2.80;;;;;;;;;;5038289;28;20718;-82
2021/12/28 11:17:50;;;;;;;3.20;3.00;;;;;;;;;;5038796;28;20203;-81
2021/12/28 11:20:17;;;;;;;3.97;3.57;;;;;;;;;;5038654;28;20245;-81
2021/12/28 11:23:05;;;;;;;2.03;1.93;;;;;;;;;;5037011;28;20203;-81
2021/12/28 11:25:34;;;;;;;2.90;2.70;;;;;;;;;;5050553;28;20242;-81
2021/12/28 11:28:13;;;;;;;2.47;2.27;;;;;;;;;;5042205;28;20211;-81
2021/12/28 11:30:40;;;;;;;2.57;2.37;;;;;;;;;;5041880;28;20261;-81
2021/12/28 11:33:07;;;;;;;3.40;3.20;;;;;;;;;;5041166;28;20771;-81
2021/12/28 11:35:34;;;;;;;2.40;2.30;;;;;;;;;;5040644;28;20226;-81
2021/12/28 11:38:02;;;;;;;3.00;2.80;;;;;;;;;;5041677;28;20224;-81
2021/12/28 11:40:31;;;;;;;4.13;3.83;;;;;;;;;;5040790;28;20231;-81
2021/12/28 11:42:59;;;;;;;4.23;3.87;;;;;;;;;;5039590;28;20215;-81
2021/12/28 11:45:26;;;;;;;4.93;4.43;;;;;;;;;;5020081;28;20211;-81
2021/12/28 11:47:53;;;;;;;3.13;2.93;;;;;;;;;;5019567;28;20215;-81
2021/12/28 11:50:21;;;;;;;3.93;3.63;;;;;;;;;;5020427;28;20227;-81
2021/12/28 11:52:48;;;;;;;6.07;4.00;;;;;;;;;;5019582;28;20214;-81
2021/12/28 11:55:15;;;;;;;3.17;2.87;;;;;;;;;;5020046;28;20243;-81
2021/12/28 11:57:50;;;;;;;2.83;2.63;;;;;;;;;;5021543;28;20207;-81
2021/12/28 12:00:20;;;;;;;5.63;3.70;;;;;;;;;;5027701;28;20256;-81
2021/12/28 12:02:49;;;;;;;4.47;4.07;;;;;;;;;;5040230;28;20213;-81
2021/12/28 12:05:17;;;;;;;4.50;4.10;;;;;;;;;;5039902;28;20798;-81
2021/12/28 12:07:44;;;;;;;4.90;3.90;;;;;;;;;;5040641;28;20210;-81
2021/12/28 12:10:13;;;;;;;3.07;2.87;;;;;;;;;;5041140;28;20246;-81
2021/12/28 12:12:48;;;;;;;3.70;3.40;;;;;;;;;;5041078;28;20604;-81
2021/12/28 12:15:16;;;;;;;4.00;3.60;;;;;;;;;;5040441;28;20238;-81
2021/12/28 12:17:44;;;;;;;3.90;3.47;;;;;;;;;;5042098;28;20675;-81
2021/12/28 12:20:27;;;;;;;3.27;3.03;;;;;;;;;;5041441;28;20249;-81
2021/12/28 12:22:55;;;;;;;3.20;3.00;;;;;;;;;;5047290;28;20171;-81
2021/12/28 12:25:24;;;;;;;3.73;3.17;;;;;;;;;;5041678;28;20257;-81
2021/12/28 12:27:52;;;;;;;3.00;2.70;;;;;;;;;;5040616;28;20202;-81
2021/12/28 12:30:44;;;;;;;2.90;2.70;;;;;;;;;;5052767;28;20226;-82
2021/12/28 12:33:13;;;;;;;2.13;2.03;;;;;;;;;;5061679;28;20202;-81
2021/12/28 12:35:41;;;;;;;3.43;3.00;;;;;;;;;;5060819;28;20728;-82
2021/12/28 12:38:24;;;;;;;2.80;2.60;;;;;;;;;;5042828;28;20209;-81
2021/12/28 12:40:54;;;;;;;4.03;3.40;;;;;;;;;;5048996;28;20215;-81
2021/12/28 12:43:23;;;;;;;2.83;2.63;;;;;;;;;;5039845;28;20241;-81
2021/12/28 12:46:05;;;;;;;3.07;2.77;;;;;;;;;;5040374;28;20207;-81
2021/12/28 12:48:54;;;;;;;3.73;2.60;;;;;;;;;;5040852;28;20226;-81
2021/12/28 12:51:28;;;;;;;2.20;2.10;;;;;;;;;;5041662;28;20231;-81
2021/12/28 12:53:58;;;;;;;2.00;1.90;;;;;;;;;;5042080;28;20295;-81
2021/12/28 12:56:26;;;;;;;3.13;2.50;;;;;;;;;;5039849;28;20230;-81
2021/12/28 12:58:55;;;;;;;2.13;2.03;;;;;;;;;;5040672;28;20243;-82
2021/12/28 13:01:24;;;;;;;2.03;1.93;;;;;;;;;;5039673;28;20222;-81
2021/12/28 13:03:52;;;;;;;2.20;2.10;;;;;;;;;;5061328;22;20638;-83
2021/12/28 13:06:34;;;;;;;2.20;2.00;;;;;;;;;;5031431;28;20199;-83
2021/12/28 13:09:01;;;;;;;2.37;2.10;;;;;;;;;;5047430;28;20230;-82
2021/12/28 13:11:31;;;;;;;2.33;2.13;;;;;;;;;;5052452;28;20202;-82
2021/12/28 13:13:58;;;;;;;2.03;1.93;;;;;;;;;;5062124;28;20237;-83
2021/12/28 13:16:25;;;;;;;2.00;1.90;;;;;;;;;;5060202;28;20611;-84
2021/12/28 13:19:05;;;;;;;1.47;1.47;;;;;;;;;;5059639;28;20245;-84
2021/12/28 13:21:32;;;;;;;1.70;1.60;;;;;;;;;;5060466;28;20228;-85
2021/12/28 13:24:09;;;;;;;1.70;1.57;;;;;;;;;;5052014;28;20234;-84
2021/12/28 13:26:43;;;;;;;1.20;1.20;;;;;;;;;;5046712;28;20198;-84
2021/12/28 13:29:10;;;;;;;2.60;1.77;;;;;;;;;;5058166;28;20635;-83
2021/12/28 13:31:37;;;;;;;1.47;1.37;;;;;;;;;;5049115;28;20210;-84
2021/12/28 13:34:05;;;;;;;1.80;1.70;;;;;;;;;;5050935;28;20242;-83
2021/12/28 13:36:32;;;;;;;1.90;1.80;;;;;;;;;;5060494;28;20230;-83
2021/12/28 13:39:05;;;;;;;2.00;1.80;;;;;;;;;;5052995;28;20230;-84
2021/12/28 13:41:32;;;;;;;1.83;1.60;;;;;;;;;;5054025;28;20202;-84
2021/12/28 13:44:03;;;;;;;2.00;1.90;;;;;;;;;;5059460;28;20234;-84
2021/12/28 13:46:30;;;;;;;2.73;2.20;;;;;;;;;;5059895;28;20209;-84
2021/12/28 13:48:59;;;;;;;2.33;2.20;;;;;;;;;;5060298;28;20605;-83
2021/12/28 13:51:29;;;;;;;2.53;2.33;;;;;;;;;;5060422;28;20674;-83
2021/12/28 13:53:57;;;;;;;2.63;2.33;;;;;;;;;;5059925;28;20238;-82
2021/12/28 13:56:30;;;;;;;3.67;2.50;;;;;;;;;;5053598;28;20225;-83
2021/12/28 13:58:57;;;;;;;2.47;2.27;;;;;;;;;;5050104;28;20737;-83
2021/12/28 14:01:26;;;;;;;2.20;2.10;;;;;;;;;;5038040;28;20670;-83
2021/12/28 14:03:57;;;;;;;1.83;1.70;;;;;;;;;;5031418;28;20242;-84
2021/12/28 14:06:25;;;;;;;2.27;2.07;;;;;;;;;;5032356;28;20658;-83
2021/12/28 14:08:53;;;;;;;2.23;2.03;;;;;;;;;;5032825;28;20254;-84
2021/12/28 14:11:30;;;;;;;2.60;1.80;;;;;;;;;;5031729;28;20222;-86
2021/12/28 14:13:57;;;;;;;3.07;1.50;;;;;;;;;;5036626;28;20230;-85
2021/12/28 14:16:24;;;;;;;2.83;1.57;;;;;;;;;;5030954;28;20733;-86
2021/12/28 14:18:52;;;;;;;2.77;1.63;;;;;;;;;;5031425;28;20238;-84
2021/12/28 14:21:24;;;;;;;1.97;1.40;;;;;;;;;;5033080;28;20195;-85
2021/12/28 14:24:00;;;;;;;3.13;1.73;;;;;;;;;;5031630;28;20288;-85
2021/12/28 14:26:29;;;;;;;4.93;1.60;;;;;;;;;;5031317;28;20187;-85
2021/12/28 14:28:57;;;;;;;2.90;1.60;;;;;;;;;;5031429;28;20234;-85
2021/12/28 14:31:26;;;;;;;1.77;1.50;;;;;;;;;;5033634;28;20203;-85
2021/12/28 14:33:54;;;;;;;2.40;1.70;;;;;;;;;;5033900;28;20269;-85
2021/12/28 14:36:22;;;;;;;2.93;1.50;;;;;;;;;;5031905;28;20215;-85
2021/12/28 14:38:49;;;;;;;3.97;1.90;;;;;;;;;;5032793;28;20234;-84
2021/12/28 14:41:22;;;;;;;3.53;2.00;;;;;;;;;;5033061;28;20234;-84
2021/12/28 14:43:50;;;;;;;3.73;1.97;;;;;;;;;;5031685;28;20237;-85
2021/12/28 14:46:27;;;;;;;2.83;1.63;;;;;;;;;;5032644;28;20250;-84